sensor_id;sensor_type;location;lat;lon;timestamp;temperature;humidity
24664;DHT22;12791;50.992;13.788;2023-10-08T03:01:22;14.30;99.90
24664;DHT22;12791;50.992;13.788;2023-10-08T03:03:51;14.30;99.90
24664;DHT22;12791;50.992;13.788;2023-10-08T03:06:27;14.30;99.90
24664;DHT22;12791;50.992;13.788;2023-10-08T03:08:57;14.20;99.90
24664;DHT22;12791;50.992;13.788;2023-10-08T03:11:29;14.20;99.90
24664;DHT22;12791;50.992;13.788;2023-10-08T03:13:56;14.10;99.90
24664;DHT22;12791;50.992;13.788;2023-10-08T03:16:25;14.00;99.90
24664;DHT22;12791;50.992;13.788;2023-10-08T03:18:54;14.00;99.90
24664;DHT22;12791;50.992;13.788;2023-10-08T03:21:22;14.00;99.90
24664;DHT22;12791;50.992;13.788;2023-10-08T03:24:11;14.00;99.90
24664;DHT22;12791;50.992;13.788;2023-10-08T03:26:54;14.10;99.90
24664;DHT22;12791;50.992;13.788;2023-10-08T03:29:32;14.20;99.90
24664;DHT22;12791;50.992;13.788;2023-10-08T03:32:00;14.00;99.90
24664;DHT22;12791;50.992;13.788;2023-10-08T03:34:31;14.00;99.90
24664;DHT22;12791;50.992;13.788;2023-10-08T03:36:59;13.80;99.90
24664;DHT22;12791;50.992;13.788;2023-10-08T03:39:31;13.70;99.90
24664;DHT22;12791;50.992;13.788;2023-10-08T03:42:19;13.50;99.90
24664;DHT22;12791;50.992;13.788;2023-10-08T03:44:46;13.30;99.90
24664;DHT22;12791;50.992;13.788;2023-10-08T03:47:18;13.40;99.90
24664;DHT22;12791;50.992;13.788;2023-10-08T03:49:47;13.20;99.90
24664;DHT22;12791;50.992;13.788;2023-10-08T03:52:16;13.00;99.90
24664;DHT22;12791;50.992;13.788;2023-10-08T03:54:43;13.00;99.90
24664;DHT22;12791;50.992;13.788;2023-10-08T03:57:14;12.90;99.90
24664;DHT22;12791;50.992;13.788;2023-10-08T03:59:50;12.70;99.90
24664;DHT22;12791;50.992;13.788;2023-10-08T04:02:25;12.70;99.90
24664;DHT22;12791;50.992;13.788;2023-10-08T04:05:05;12.60;99.90
24664;DHT22;12791;50.992;13.788;2023-10-08T04:07:44;12.50;99.90
24664;DHT22;12791;50.992;13.788;2023-10-08T04:10:32;12.40;99.90
24664;DHT22;12791;50.992;13.788;2023-10-08T04:13:25;12.30;99.90
24664;DHT22;12791;50.992;13.788;2023-10-08T04:15:53;12.30;99.90
24664;DHT22;12791;50.992;13.788;2023-10-08T04:18:22;12.20;99.90
24664;DHT22;12791;50.992;13.788;2023-10-08T04:20:48;12.10;99.90
24664;DHT22;12791;50.992;13.788;2023-10-08T04:23:26;12.10;99.90
24664;DHT22;12791;50.992;13.788;2023-10-08T04:25:55;12.20;99.90
24664;DHT22;12791;50.992;13.788;2023-10-08T04:28:23;12.10;99.90
24664;DHT22;12791;50.992;13.788;2023-10-08T04:30:54;12.10;99.90
24664;DHT22;12791;50.992;13.788;2023-10-08T04:33:28;12.10;99.90
24664;DHT22;12791;50.992;13.788;2023-10-08T04:35:59;12.10;99.90
24664;DHT22;12791;50.992;13.788;2023-10-08T04:38:28;12.10;99.90
24664;DHT22;12791;50.992;13.788;2023-10-08T04:40:55;12.20;99.90
24664;DHT22;12791;50.992;13.788;2023-10-08T04:43:27;12.10;99.90
24664;DHT22;12791;50.992;13.788;2023-10-08T04:45:56;12.10;99.90
24664;DHT22;12791;50.992;13.788;2023-10-08T04:48:23;12.20;99.90
24664;DHT22;12791;50.992;13.788;2023-10-08T04:50:51;12.10;99.90
24664;DHT22;12791;50.992;13.788;2023-10-08T04:53:25;12.10;99.90
24664;DHT22;12791;50.992;13.788;2023-10-08T04:55:58;12.00;99.90
24664;DHT22;12791;50.992;13.788;2023-10-08T04:58:28;12.00;99.90
24664;DHT22;12791;50.992;13.788;2023-10-08T05:01:01;11.90;99.90
24664;DHT22;12791;50.992;13.788;2023-10-08T05:03:43;11.90;99.90
24664;DHT22;12791;50.992;13.788;2023-10-08T05:06:23;11.90;99.90
24664;DHT22;12791;50.992;13.788;2023-10-08T05:09:15;12.10;99.90
24664;DHT22;12791;50.992;13.788;2023-10-08T05:11:49;11.90;99.90
24664;DHT22;12791;50.992;13.788;2023-10-08T05:14:34;11.90;99.90
24664;DHT22;12791;50.992;13.788;2023-10-08T05:17:05;11.90;99.90
24664;DHT22;12791;50.992;13.788;2023-10-08T05:19:37;12.10;99.90
24664;DHT22;12791;50.992;13.788;2023-10-08T05:22:16;11.90;99.90
24664;DHT22;12791;50.992;13.788;2023-10-08T05:25:08;11.80;99.90
24664;DHT22;12791;50.992;13.788;2023-10-08T05:27:52;12.00;99.90
24664;DHT22;12791;50.992;13.788;2023-10-08T05:30:34;11.80;99.90
24664;DHT22;12791;50.992;13.788;2023-10-08T05:33:05;11.90;99.90
24664;DHT22;12791;50.992;13.788;2023-10-08T05:35:51;11.80;99.90
24664;DHT22;12791;50.992;13.788;2023-10-08T05:38:30;11.80;99.90
24664;DHT22;12791;50.992;13.788;2023-10-08T05:41:16;11.80;99.90
24664;DHT22;12791;50.992;13.788;2023-10-08T05:44:04;11.80;99.90
24664;DHT22;12791;50.992;13.788;2023-10-08T05:46:49;11.80;99.90
24664;DHT22;12791;50.992;13.788;2023-10-08T05:49:38;11.70;99.90
24664;DHT22;12791;50.992;13.788;2023-10-08T05:52:08;11.70;99.90
24664;DHT22;12791;50.992;13.788;2023-10-08T05:54:52;11.80;99.90
24664;DHT22;12791;50.992;13.788;2023-10-08T05:57:41;11.90;99.90
24664;DHT22;12791;50.992;13.788;2023-10-08T06:00:13;11.90;99.90
24664;DHT22;12791;50.992;13.788;2023-10-08T06:02:57;11.80;99.90
24664;DHT22;12791;50.992;13.788;2023-10-08T06:05:46;11.90;99.90
24664;DHT22;12791;50.992;13.788;2023-10-08T06:08:30;11.70;99.90
24664;DHT22;12791;50.992;13.788;2023-10-08T06:11:16;11.50;99.90
24664;DHT22;12791;50.992;13.788;2023-10-08T06:13:54;11.60;99.90
24664;DHT22;12791;50.992;13.788;2023-10-08T06:16:21;11.20;99.90
24664;DHT22;12791;50.992;13.788;2023-10-08T06:19:07;11.10;99.90
24664;DHT22;12791;50.992;13.788;2023-10-08T06:21:35;11.10;99.90
24664;DHT22;12791;50.992;13.788;2023-10-08T06:24:02;11.00;99.90
24664;DHT22;12791;50.992;13.788;2023-10-08T06:26:36;11.10;99.90
24664;DHT22;12791;50.992;13.788;2023-10-08T06:29:09;11.20;99.90
24664;DHT22;12791;50.992;13.788;2023-10-08T06:31:45;11.20;99.90
24664;DHT22;12791;50.992;13.788;2023-10-08T06:34:17;11.30;99.90
24664;DHT22;12791;50.992;13.788;2023-10-08T06:36:47;11.30;99.90
24664;DHT22;12791;50.992;13.788;2023-10-08T06:39:14;11.40;99.90
24664;DHT22;12791;50.992;13.788;2023-10-08T06:41:46;11.40;99.90
24664;DHT22;12791;50.992;13.788;2023-10-08T06:44:13;11.50;99.90
24664;DHT22;12791;50.992;13.788;2023-10-08T06:46:40;11.60;99.90
24664;DHT22;12791;50.992;13.788;2023-10-08T06:49:08;11.60;99.90
24664;DHT22;12791;50.992;13.788;2023-10-08T06:51:38;11.70;99.90
24664;DHT22;12791;50.992;13.788;2023-10-08T06:54:07;11.80;99.90
24664;DHT22;12791;50.992;13.788;2023-10-08T06:56:36;11.80;99.90
24664;DHT22;12791;50.992;13.788;2023-10-08T06:59:05;11.90;99.90
24664;DHT22;12791;50.992;13.788;2023-10-08T07:01:35;11.90;99.90
24664;DHT22;12791;50.992;13.788;2023-10-08T07:04:05;12.00;99.90
24664;DHT22;12791;50.992;13.788;2023-10-08T07:06:37;12.00;99.90
24664;DHT22;12791;50.992;13.788;2023-10-08T07:09:06;12.00;99.90
24664;DHT22;12791;50.992;13.788;2023-10-08T07:11:39;12.00;99.90
24664;DHT22;12791;50.992;13.788;2023-10-08T07:14:11;12.10;99.90
24664;DHT22;12791;50.992;13.788;2023-10-08T07:16:40;12.10;99.90
24664;DHT22;12791;50.992;13.788;2023-10-08T07:19:07;12.10;99.90
24664;DHT22;12791;50.992;13.788;2023-10-08T07:21:44;12.10;99.90
24664;DHT22;12791;50.992;13.788;2023-10-08T07:24:11;12.10;99.90
24664;DHT22;12791;50.992;13.788;2023-10-08T07:26:41;12.10;99.90
24664;DHT22;12791;50.992;13.788;2023-10-08T07:29:14;12.10;99.90
24664;DHT22;12791;50.992;13.788;2023-10-08T07:31:43;12.10;99.90
24664;DHT22;12791;50.992;13.788;2023-10-08T07:34:15;12.20;99.90
24664;DHT22;12791;50.992;13.788;2023-10-08T07:42:56;12.20;99.90
24664;DHT22;12791;50.992;13.788;2023-10-08T07:45:32;12.20;99.90
24664;DHT22;12791;50.992;13.788;2023-10-08T07:48:41;12.30;99.90
24664;DHT22;12791;50.992;13.788;2023-10-08T07:51:09;12.20;99.90
24664;DHT22;12791;50.992;13.788;2023-10-08T07:53:35;12.30;99.90
24664;DHT22;12791;50.992;13.788;2023-10-08T07:56:06;12.30;99.90
24664;DHT22;12791;50.992;13.788;2023-10-08T07:58:34;12.30;99.90
24664;DHT22;12791;50.992;13.788;2023-10-08T08:01:06;12.40;99.90
24664;DHT22;12791;50.992;13.788;2023-10-08T08:03:35;12.40;99.90
24664;DHT22;12791;50.992;13.788;2023-10-08T08:06:07;12.40;99.90
24664;DHT22;12791;50.992;13.788;2023-10-08T08:08:35;12.50;99.90
24664;DHT22;12791;50.992;13.788;2023-10-08T08:11:02;12.50;99.90
24664;DHT22;12791;50.992;13.788;2023-10-08T08:13:38;12.50;99.90
24664;DHT22;12791;50.992;13.788;2023-10-08T08:16:10;12.50;99.90
24664;DHT22;12791;50.992;13.788;2023-10-08T08:18:43;12.60;99.90
24664;DHT22;12791;50.992;13.788;2023-10-08T08:21:21;12.60;99.90
24664;DHT22;12791;50.992;13.788;2023-10-08T08:23:49;12.50;99.90
24664;DHT22;12791;50.992;13.788;2023-10-08T08:26:19;12.70;99.90
24664;DHT22;12791;50.992;13.788;2023-10-08T08:28:55;12.70;99.90
24664;DHT22;12791;50.992;13.788;2023-10-08T08:31:26;12.70;99.90
24664;DHT22;12791;50.992;13.788;2023-10-08T08:34:06;12.70;99.90
24664;DHT22;12791;50.992;13.788;2023-10-08T08:36:41;12.70;99.90
24664;DHT22;12791;50.992;13.788;2023-10-08T08:39:18;12.80;99.90
24664;DHT22;12791;50.992;13.788;2023-10-08T08:42:00;12.80;99.90
24664;DHT22;12791;50.992;13.788;2023-10-08T08:44:28;12.70;99.90
24664;DHT22;12791;50.992;13.788;2023-10-08T08:47:00;12.60;99.90
24664;DHT22;12791;50.992;13.788;2023-10-08T08:52:43;12.50;99.90
24664;DHT22;12791;50.992;13.788;2023-10-08T08:53:14;12.70;99.90
24664;DHT22;12791;50.992;13.788;2023-10-08T08:55:47;12.80;99.90
24664;DHT22;12791;50.992;13.788;2023-10-08T08:58:19;12.80;99.90
24664;DHT22;12791;50.992;13.788;2023-10-08T09:18:35;12.80;99.90
24664;DHT22;12791;50.992;13.788;2023-10-08T09:21:19;12.90;99.90
24664;DHT22;12791;50.992;13.788;2023-10-08T09:23:50;12.80;99.90
24664;DHT22;12791;50.992;13.788;2023-10-08T09:26:18;12.90;99.90
24664;DHT22;12791;50.992;13.788;2023-10-08T09:28:46;12.90;99.90
24664;DHT22;12791;50.992;13.788;2023-10-08T09:31:16;12.90;99.90
24664;DHT22;12791;50.992;13.788;2023-10-08T09:33:54;12.90;99.90
24664;DHT22;12791;50.992;13.788;2023-10-08T09:36:22;12.80;99.90
24664;DHT22;12791;50.992;13.788;2023-10-08T09:39:00;12.80;99.90
24664;DHT22;12791;50.992;13.788;2023-10-08T09:41:31;12.90;99.90
24664;DHT22;12791;50.992;13.788;2023-10-08T09:43:59;12.90;99.90
24664;DHT22;12791;50.992;13.788;2023-10-08T09:46:32;12.90;99.90
24664;DHT22;12791;50.992;13.788;2023-10-08T09:49:01;12.90;99.90
24664;DHT22;12791;50.992;13.788;2023-10-08T09:51:35;13.00;99.90
24664;DHT22;12791;50.992;13.788;2023-10-08T09:54:08;13.00;99.90
24664;DHT22;12791;50.992;13.788;2023-10-08T09:56:40;13.00;99.90
24664;DHT22;12791;50.992;13.788;2023-10-08T09:59:09;13.10;99.90
24664;DHT22;12791;50.992;13.788;2023-10-08T10:01:39;13.00;99.90
24664;DHT22;12791;50.992;13.788;2023-10-08T10:04:08;13.00;99.90
24664;DHT22;12791;50.992;13.788;2023-10-08T10:06:36;13.00;99.90
24664;DHT22;12791;50.992;13.788;2023-10-08T10:09:05;13.00;99.90
24664;DHT22;12791;50.992;13.788;2023-10-08T10:11:35;13.00;99.90
24664;DHT22;12791;50.992;13.788;2023-10-08T10:14:03;13.00;99.90
24664;DHT22;12791;50.992;13.788;2023-10-08T10:16:32;13.00;99.90
24664;DHT22;12791;50.992;13.788;2023-10-08T10:19:04;13.00;99.90
24664;DHT22;12791;50.992;13.788;2023-10-08T10:21:33;13.10;99.90
24664;DHT22;12791;50.992;13.788;2023-10-08T10:24:00;13.10;99.90
24664;DHT22;12791;50.992;13.788;2023-10-08T10:26:33;13.20;99.90
24664;DHT22;12791;50.992;13.788;2023-10-08T10:29:22;13.40;99.90
24664;DHT22;12791;50.992;13.788;2023-10-08T10:31:53;13.50;99.90
24664;DHT22;12791;50.992;13.788;2023-10-08T10:34:30;13.50;99.90
24664;DHT22;12791;50.992;13.788;2023-10-08T10:37:03;13.50;99.90
24664;DHT22;12791;50.992;13.788;2023-10-08T10:39:34;13.50;99.90
24664;DHT22;12791;50.992;13.788;2023-10-08T10:42:06;13.60;99.90
24664;DHT22;12791;50.992;13.788;2023-10-08T10:44:46;13.60;99.90
24664;DHT22;12791;50.992;13.788;2023-10-08T10:47:15;13.50;99.90
24664;DHT22;12791;50.992;13.788;2023-10-08T10:50:09;13.60;99.90
24664;DHT22;12791;50.992;13.788;2023-10-08T10:52:52;13.70;99.90
24664;DHT22;12791;50.992;13.788;2023-10-08T10:55:20;13.70;99.90
24664;DHT22;12791;50.992;13.788;2023-10-08T10:57:49;13.90;99.90
24664;DHT22;12791;50.992;13.788;2023-10-08T11:00:28;13.90;99.90
24664;DHT22;12791;50.992;13.788;2023-10-08T11:03:12;14.00;99.90
24664;DHT22;12791;50.992;13.788;2023-10-08T11:05:53;14.00;99.90
24664;DHT22;12791;50.992;13.788;2023-10-08T11:08:21;14.00;99.90
24664;DHT22;12791;50.992;13.788;2023-10-08T11:10:51;14.00;99.90
24664;DHT22;12791;50.992;13.788;2023-10-08T11:13:19;14.00;99.90
24664;DHT22;12791;50.992;13.788;2023-10-08T11:15:49;14.00;99.90
24664;DHT22;12791;50.992;13.788;2023-10-08T11:18:18;14.00;99.90
24664;DHT22;12791;50.992;13.788;2023-10-08T11:20:47;14.00;99.90
24664;DHT22;12791;50.992;13.788;2023-10-08T11:23:34;14.00;99.90
24664;DHT22;12791;50.992;13.788;2023-10-08T11:26:03;14.20;99.90
24664;DHT22;12791;50.992;13.788;2023-10-08T11:28:31;15.10;99.90
24664;DHT22;12791;50.992;13.788;2023-10-08T11:31:00;16.00;99.90
24664;DHT22;12791;50.992;13.788;2023-10-08T11:33:34;16.80;99.90
24664;DHT22;12791;50.992;13.788;2023-10-08T11:36:03;17.40;99.90
24664;DHT22;12791;50.992;13.788;2023-10-08T11:38:40;17.70;99.90
24664;DHT22;12791;50.992;13.788;2023-10-08T11:41:11;18.20;99.90
24664;DHT22;12791;50.992;13.788;2023-10-08T11:43:51;18.60;99.90
24664;DHT22;12791;50.992;13.788;2023-10-08T11:46:23;18.90;99.90
24664;DHT22;12791;50.992;13.788;2023-10-08T11:48:53;19.10;99.90
24664;DHT22;12791;50.992;13.788;2023-10-08T11:51:23;19.20;99.90
24664;DHT22;12791;50.992;13.788;2023-10-08T11:53:52;19.20;99.90
24664;DHT22;12791;50.992;13.788;2023-10-08T11:56:19;19.20;99.90
24664;DHT22;12791;50.992;13.788;2023-10-08T11:58:49;19.20;99.90
24664;DHT22;12791;50.992;13.788;2023-10-08T12:01:17;19.20;99.90
24664;DHT22;12791;50.992;13.788;2023-10-08T12:03:44;19.40;99.90
24664;DHT22;12791;50.992;13.788;2023-10-08T12:06:11;19.50;99.90
24664;DHT22;12791;50.992;13.788;2023-10-08T12:08:42;19.60;99.90
24664;DHT22;12791;50.992;13.788;2023-10-08T12:11:13;19.60;99.90
24664;DHT22;12791;50.992;13.788;2023-10-08T12:13:41;19.60;99.90
24664;DHT22;12791;50.992;13.788;2023-10-08T12:16:12;19.70;99.90
24664;DHT22;12791;50.992;13.788;2023-10-08T12:18:47;19.70;99.90
24664;DHT22;12791;50.992;13.788;2023-10-08T12:21:24;19.40;99.90
24664;DHT22;12791;50.992;13.788;2023-10-08T12:23:51;18.60;99.90
24664;DHT22;12791;50.992;13.788;2023-10-08T12:26:22;17.90;99.90
24664;DHT22;12791;50.992;13.788;2023-10-08T12:28:49;17.30;99.90
24664;DHT22;12791;50.992;13.788;2023-10-08T12:31:16;16.80;99.90
24664;DHT22;12791;50.992;13.788;2023-10-08T12:33:47;16.40;99.90
24664;DHT22;12791;50.992;13.788;2023-10-08T12:36:15;16.00;99.90
24664;DHT22;12791;50.992;13.788;2023-10-08T12:38:43;15.70;99.90
24664;DHT22;12791;50.992;13.788;2023-10-08T12:41:10;15.50;99.90
24664;DHT22;12791;50.992;13.788;2023-10-08T12:43:43;15.20;99.90
24664;DHT22;12791;50.992;13.788;2023-10-08T12:46:11;15.10;99.90
24664;DHT22;12791;50.992;13.788;2023-10-08T12:48:44;15.00;99.90
24664;DHT22;12791;50.992;13.788;2023-10-08T12:51:14;15.00;99.90
24664;DHT22;12791;50.992;13.788;2023-10-08T12:53:41;14.90;99.90
24664;DHT22;12791;50.992;13.788;2023-10-08T12:56:16;15.30;99.90
24664;DHT22;12791;50.992;13.788;2023-10-08T12:58:48;15.90;99.90
24664;DHT22;12791;50.992;13.788;2023-10-08T13:01:19;16.40;99.90
24664;DHT22;12791;50.992;13.788;2023-10-08T13:03:46;17.00;99.90
24664;DHT22;12791;50.992;13.788;2023-10-08T13:06:20;17.50;99.90
24664;DHT22;12791;50.992;13.788;2023-10-08T13:08:49;18.00;99.90
24664;DHT22;12791;50.992;13.788;2023-10-08T13:11:18;18.10;99.90
24664;DHT22;12791;50.992;13.788;2023-10-08T13:13:50;18.30;99.90
24664;DHT22;12791;50.992;13.788;2023-10-08T13:16:18;18.50;98.70
24664;DHT22;12791;50.992;13.788;2023-10-08T13:18:47;18.30;99.90
24664;DHT22;12791;50.992;13.788;2023-10-08T13:21:14;18.30;99.90
24664;DHT22;12791;50.992;13.788;2023-10-08T13:23:41;18.30;99.90
24664;DHT22;12791;50.992;13.788;2023-10-08T13:26:08;18.30;99.90
24664;DHT22;12791;50.992;13.788;2023-10-08T13:28:36;18.30;99.90
24664;DHT22;12791;50.992;13.788;2023-10-08T13:31:04;18.40;99.90
24664;DHT22;12791;50.992;13.788;2023-10-08T13:33:37;18.60;99.90
24664;DHT22;12791;50.992;13.788;2023-10-08T13:36:08;18.80;99.90
24664;DHT22;12791;50.992;13.788;2023-10-08T13:38:36;18.90;99.90
24664;DHT22;12791;50.992;13.788;2023-10-08T13:41:03;18.90;99.90
24664;DHT22;12791;50.992;13.788;2023-10-08T13:43:32;18.90;99.90
24664;DHT22;12791;50.992;13.788;2023-10-08T13:46:06;18.80;99.90
24664;DHT22;12791;50.992;13.788;2023-10-08T13:48:39;18.90;99.90
24664;DHT22;12791;50.992;13.788;2023-10-08T13:51:07;18.90;99.90
24664;DHT22;12791;50.992;13.788;2023-10-08T13:53:39;18.80;97.30
24664;DHT22;12791;50.992;13.788;2023-10-08T13:56:06;18.60;96.30
24664;DHT22;12791;50.992;13.788;2023-10-08T13:58:37;18.50;99.60
24664;DHT22;12791;50.992;13.788;2023-10-08T14:01:08;18.50;99.90
24664;DHT22;12791;50.992;13.788;2023-10-08T14:03:45;18.70;99.00
24664;DHT22;12791;50.992;13.788;2023-10-08T14:06:13;18.80;99.40
24664;DHT22;12791;50.992;13.788;2023-10-08T14:08:42;19.00;98.50
24664;DHT22;12791;50.992;13.788;2023-10-08T14:11:19;19.00;95.80
24664;DHT22;12791;50.992;13.788;2023-10-08T14:13:49;19.00;96.20
24664;DHT22;12791;50.992;13.788;2023-10-08T14:16:18;19.10;95.60
24664;DHT22;12791;50.992;13.788;2023-10-08T14:18:49;19.30;94.50
24664;DHT22;12791;50.992;13.788;2023-10-08T14:21:19;19.40;94.90
24664;DHT22;12791;50.992;13.788;2023-10-08T14:23:49;19.50;94.90
24664;DHT22;12791;50.992;13.788;2023-10-08T14:26:18;19.70;94.70
24664;DHT22;12791;50.992;13.788;2023-10-08T14:28:48;19.80;94.10
24664;DHT22;12791;50.992;13.788;2023-10-08T14:31:20;19.90;94.00
24664;DHT22;12791;50.992;13.788;2023-10-08T14:33:50;20.00;94.00
24664;DHT22;12791;50.992;13.788;2023-10-08T14:36:31;20.00;93.80
24664;DHT22;12791;50.992;13.788;2023-10-08T14:39:15;20.00;93.00
24664;DHT22;12791;50.992;13.788;2023-10-08T14:42:00;20.10;92.80
24664;DHT22;12791;50.992;13.788;2023-10-08T14:44:44;19.90;92.40
24664;DHT22;12791;50.992;13.788;2023-10-08T14:47:13;19.90;92.90
24664;DHT22;12791;50.992;13.788;2023-10-08T14:49:41;19.90;92.60
24664;DHT22;12791;50.992;13.788;2023-10-08T14:52:09;19.90;92.60
24664;DHT22;12791;50.992;13.788;2023-10-08T14:54:36;19.90;92.20
24664;DHT22;12791;50.992;13.788;2023-10-08T14:57:05;19.90;92.00
24664;DHT22;12791;50.992;13.788;2023-10-08T14:59:32;20.00;91.90
24664;DHT22;12791;50.992;13.788;2023-10-08T15:01:59;20.00;91.90
24664;DHT22;12791;50.992;13.788;2023-10-08T15:04:28;20.00;92.10
24664;DHT22;12791;50.992;13.788;2023-10-08T15:06:57;20.00;91.80
24664;DHT22;12791;50.992;13.788;2023-10-08T15:09:24;20.00;91.70
24664;DHT22;12791;50.992;13.788;2023-10-08T15:11:52;20.10;91.90
24664;DHT22;12791;50.992;13.788;2023-10-08T15:14:20;20.10;91.70
24664;DHT22;12791;50.992;13.788;2023-10-08T15:16:49;20.10;91.40
24664;DHT22;12791;50.992;13.788;2023-10-08T15:19:19;20.10;91.10
24664;DHT22;12791;50.992;13.788;2023-10-08T15:21:49;20.20;91.20
24664;DHT22;12791;50.992;13.788;2023-10-08T15:24:18;20.20;91.20
24664;DHT22;12791;50.992;13.788;2023-10-08T15:26:50;20.20;90.70
24664;DHT22;12791;50.992;13.788;2023-10-08T15:29:20;20.20;90.10
24664;DHT22;12791;50.992;13.788;2023-10-08T15:31:54;20.20;90.90
24664;DHT22;12791;50.992;13.788;2023-10-08T15:34:28;20.20;90.90
24664;DHT22;12791;50.992;13.788;2023-10-08T15:37:01;20.10;91.20
24664;DHT22;12791;50.992;13.788;2023-10-08T15:39:29;20.20;90.60
24664;DHT22;12791;50.992;13.788;2023-10-08T15:41:57;20.20;90.40
24664;DHT22;12791;50.992;13.788;2023-10-08T15:44:24;20.10;90.50
24664;DHT22;12791;50.992;13.788;2023-10-08T15:46:52;20.00;90.60
24664;DHT22;12791;50.992;13.788;2023-10-08T15:49:19;20.20;90.60
24664;DHT22;12791;50.992;13.788;2023-10-08T15:51:49;20.20;90.50
24664;DHT22;12791;50.992;13.788;2023-10-08T15:54:18;20.10;90.40
24664;DHT22;12791;50.992;13.788;2023-10-08T15:56:46;20.10;90.30
24664;DHT22;12791;50.992;13.788;2023-10-08T15:59:15;20.20;90.20
24664;DHT22;12791;50.992;13.788;2023-10-08T16:01:46;20.20;90.10
24664;DHT22;12791;50.992;13.788;2023-10-08T16:04:15;20.20;90.10
24664;DHT22;12791;50.992;13.788;2023-10-08T16:06:44;20.20;90.00
24664;DHT22;12791;50.992;13.788;2023-10-08T16:09:15;20.10;89.60
24664;DHT22;12791;50.992;13.788;2023-10-08T16:11:46;20.20;88.80
24664;DHT22;12791;50.992;13.788;2023-10-08T16:14:14;20.20;88.10
24664;DHT22;12791;50.992;13.788;2023-10-08T16:16:43;20.20;87.30
24664;DHT22;12791;50.992;13.788;2023-10-08T16:19:12;20.20;87.10
24664;DHT22;12791;50.992;13.788;2023-10-08T16:21:41;20.20;86.50
24664;DHT22;12791;50.992;13.788;2023-10-08T16:24:10;20.20;86.20
24664;DHT22;12791;50.992;13.788;2023-10-08T16:26:38;20.20;85.80
24664;DHT22;12791;50.992;13.788;2023-10-08T16:29:10;20.20;85.50
24664;DHT22;12791;50.992;13.788;2023-10-08T16:31:37;20.20;85.00
24664;DHT22;12791;50.992;13.788;2023-10-08T16:34:06;20.20;84.30
24664;DHT22;12791;50.992;13.788;2023-10-08T16:36:35;20.20;83.90
24664;DHT22;12791;50.992;13.788;2023-10-08T16:39:04;20.20;83.50
24664;DHT22;12791;50.992;13.788;2023-10-08T16:41:31;20.20;83.30
24664;DHT22;12791;50.992;13.788;2023-10-08T16:43:59;20.20;83.10
24664;DHT22;12791;50.992;13.788;2023-10-08T16:46:27;20.10;78.80
24664;DHT22;12791;50.992;13.788;2023-10-08T16:48:54;19.30;79.10
24664;DHT22;12791;50.992;13.788;2023-10-08T16:51:22;18.50;81.80
24664;DHT22;12791;50.992;13.788;2023-10-08T16:53:50;17.80;85.70
24664;DHT22;12791;50.992;13.788;2023-10-08T16:56:17;17.10;90.20
24664;DHT22;12791;50.992;13.788;2023-10-08T16:58:45;16.60;93.00
24664;DHT22;12791;50.992;13.788;2023-10-08T17:01:24;16.20;94.90
24664;DHT22;12791;50.992;13.788;2023-10-08T17:03:52;15.90;98.00
24664;DHT22;12791;50.992;13.788;2023-10-08T17:06:20;15.60;99.00
24664;DHT22;12791;50.992;13.788;2023-10-08T17:08:48;15.40;99.80
24664;DHT22;12791;50.992;13.788;2023-10-08T17:11:15;15.20;99.90
24664;DHT22;12791;50.992;13.788;2023-10-08T17:13:42;15.00;99.90
24664;DHT22;12791;50.992;13.788;2023-10-08T17:16:09;14.90;99.90
24664;DHT22;12791;50.992;13.788;2023-10-08T17:18:38;14.70;99.90
24664;DHT22;12791;50.992;13.788;2023-10-08T17:21:08;14.60;99.90
24664;DHT22;12791;50.992;13.788;2023-10-08T17:23:35;14.60;99.90
24664;DHT22;12791;50.992;13.788;2023-10-08T17:26:03;14.50;99.90
24664;DHT22;12791;50.992;13.788;2023-10-08T17:28:30;14.40;99.90
24664;DHT22;12791;50.992;13.788;2023-10-08T17:30:57;14.40;99.90
24664;DHT22;12791;50.992;13.788;2023-10-08T17:33:24;14.40;99.90
24664;DHT22;12791;50.992;13.788;2023-10-08T17:35:54;14.40;99.90
24664;DHT22;12791;50.992;13.788;2023-10-08T17:38:22;14.30;99.90
24664;DHT22;12791;50.992;13.788;2023-10-08T17:40:49;14.30;99.90
24664;DHT22;12791;50.992;13.788;2023-10-08T17:43:17;14.30;99.90
24664;DHT22;12791;50.992;13.788;2023-10-08T17:45:46;14.30;99.90
24664;DHT22;12791;50.992;13.788;2023-10-08T17:48:13;14.20;99.90
24664;DHT22;12791;50.992;13.788;2023-10-08T17:50:40;14.20;99.90
24664;DHT22;12791;50.992;13.788;2023-10-08T17:53:07;14.10;99.90
24664;DHT22;12791;50.992;13.788;2023-10-08T17:55:37;14.10;99.90
24664;DHT22;12791;50.992;13.788;2023-10-08T17:58:05;14.10;99.90
24664;DHT22;12791;50.992;13.788;2023-10-08T18:00:34;14.10;99.90
24664;DHT22;12791;50.992;13.788;2023-10-08T18:03:06;14.10;99.90
24664;DHT22;12791;50.992;13.788;2023-10-08T18:05:38;14.10;99.90
24664;DHT22;12791;50.992;13.788;2023-10-08T18:08:05;14.10;99.90
24664;DHT22;12791;50.992;13.788;2023-10-08T18:10:32;14.10;99.90
24664;DHT22;12791;50.992;13.788;2023-10-08T18:13:03;14.10;99.90
24664;DHT22;12791;50.992;13.788;2023-10-08T18:15:30;14.10;99.90
24664;DHT22;12791;50.992;13.788;2023-10-08T18:18:01;14.10;99.90
24664;DHT22;12791;50.992;13.788;2023-10-08T18:20:30;14.10;99.90
24664;DHT22;12791;50.992;13.788;2023-10-08T18:23:02;14.20;99.90
24664;DHT22;12791;50.992;13.788;2023-10-08T18:25:29;14.20;99.90
24664;DHT22;12791;50.992;13.788;2023-10-08T18:27:57;14.30;99.90
24664;DHT22;12791;50.992;13.788;2023-10-08T18:30:26;14.30;99.90
24664;DHT22;12791;50.992;13.788;2023-10-08T18:32:53;14.20;99.90
24664;DHT22;12791;50.992;13.788;2023-10-08T18:35:23;14.10;99.90
24664;DHT22;12791;50.992;13.788;2023-10-08T18:37:50;14.10;99.90
24664;DHT22;12791;50.992;13.788;2023-10-08T18:40:21;14.00;99.90
24664;DHT22;12791;50.992;13.788;2023-10-08T18:42:50;13.90;99.90
24664;DHT22;12791;50.992;13.788;2023-10-08T18:45:19;13.90;99.90
24664;DHT22;12791;50.992;13.788;2023-10-08T18:47:51;13.80;99.90
24664;DHT22;12791;50.992;13.788;2023-10-08T18:50:18;13.80;99.90
24664;DHT22;12791;50.992;13.788;2023-10-08T18:52:47;13.80;99.90
24664;DHT22;12791;50.992;13.788;2023-10-08T18:55:16;13.70;99.90
24664;DHT22;12791;50.992;13.788;2023-10-08T18:57:46;13.70;99.90
24664;DHT22;12791;50.992;13.788;2023-10-08T19:00:17;13.60;99.90
24664;DHT22;12791;50.992;13.788;2023-10-08T19:02:47;13.60;99.90
24664;DHT22;12791;50.992;13.788;2023-10-08T19:05:15;13.60;99.90
24664;DHT22;12791;50.992;13.788;2023-10-08T19:07:44;13.50;99.90